sensor_id;sensor_type;location;lat;lon;timestamp;P1;durP1;ratioP1;P2;durP2;ratioP2
11533;SDS011;5823;50.588;8.462;2022-12-18T00:02:22;1.03;;;0.80;;
11533;SDS011;5823;50.588;8.462;2022-12-18T00:04:48;1.40;;;1.27;;
11533;SDS011;5823;50.588;8.462;2022-12-18T00:07:15;2.63;;;1.83;;
11533;SDS011;5823;50.588;8.462;2022-12-18T00:09:41;2.23;;;1.40;;
11533;SDS011;5823;50.588;8.462;2022-12-18T00:12:08;1.97;;;1.27;;
11533;SDS011;5823;50.588;8.462;2022-12-18T00:14:35;1.20;;;0.80;;
11533;SDS011;5823;50.588;8.462;2022-12-18T00:17:01;2.73;;;1.37;;
11533;SDS011;5823;50.588;8.462;2022-12-18T00:19:28;2.70;;;1.60;;
11533;SDS011;5823;50.588;8.462;2022-12-18T00:21:54;1.73;;;1.30;;
11533;SDS011;5823;50.588;8.462;2022-12-18T00:24:20;1.80;;;1.20;;
11533;SDS011;5823;50.588;8.462;2022-12-18T00:26:46;2.07;;;1.20;;
11533;SDS011;5823;50.588;8.462;2022-12-18T00:29:14;1.90;;;1.20;;
11533;SDS011;5823;50.588;8.462;2022-12-18T00:31:40;3.80;;;1.83;;
11533;SDS011;5823;50.588;8.462;2022-12-18T00:34:08;2.47;;;1.20;;
11533;SDS011;5823;50.588;8.462;2022-12-18T00:36:36;1.47;;;1.13;;
11533;SDS011;5823;50.588;8.462;2022-12-18T00:39:03;1.73;;;1.17;;
11533;SDS011;5823;50.588;8.462;2022-12-18T00:41:29;1.10;;;0.80;;
11533;SDS011;5823;50.588;8.462;2022-12-18T00:44:15;1.30;;;0.87;;
11533;SDS011;5823;50.588;8.462;2022-12-18T00:46:42;1.30;;;0.87;;
11533;SDS011;5823;50.588;8.462;2022-12-18T00:49:09;2.73;;;1.70;;
11533;SDS011;5823;50.588;8.462;2022-12-18T00:51:35;1.93;;;1.20;;
11533;SDS011;5823;50.588;8.462;2022-12-18T00:54:01;1.23;;;0.93;;
11533;SDS011;5823;50.588;8.462;2022-12-18T00:56:28;2.60;;;1.33;;
11533;SDS011;5823;50.588;8.462;2022-12-18T00:58:54;1.30;;;1.10;;
11533;SDS011;5823;50.588;8.462;2022-12-18T01:01:22;0.80;;;0.70;;
11533;SDS011;5823;50.588;8.462;2022-12-18T01:03:48;1.10;;;0.70;;
11533;SDS011;5823;50.588;8.462;2022-12-18T01:06:15;1.40;;;1.20;;
11533;SDS011;5823;50.588;8.462;2022-12-18T01:08:41;1.07;;;0.93;;
11533;SDS011;5823;50.588;8.462;2022-12-18T01:11:08;2.13;;;1.23;;
11533;SDS011;5823;50.588;8.462;2022-12-18T01:13:35;2.40;;;1.33;;
11533;SDS011;5823;50.588;8.462;2022-12-18T01:16:02;1.83;;;1.30;;
11533;SDS011;5823;50.588;8.462;2022-12-18T01:18:29;1.70;;;1.30;;
11533;SDS011;5823;50.588;8.462;2022-12-18T01:20:55;1.47;;;1.20;;
11533;SDS011;5823;50.588;8.462;2022-12-18T01:23:22;1.60;;;1.40;;
11533;SDS011;5823;50.588;8.462;2022-12-18T01:25:52;1.90;;;1.40;;
11533;SDS011;5823;50.588;8.462;2022-12-18T01:28:18;1.50;;;1.23;;
11533;SDS011;5823;50.588;8.462;2022-12-18T01:30:44;1.87;;;1.03;;
11533;SDS011;5823;50.588;8.462;2022-12-18T01:33:10;1.77;;;1.07;;
11533;SDS011;5823;50.588;8.462;2022-12-18T01:35:41;2.47;;;1.33;;
11533;SDS011;5823;50.588;8.462;2022-12-18T01:38:07;1.53;;;0.90;;
11533;SDS011;5823;50.588;8.462;2022-12-18T01:40:34;1.40;;;0.90;;
11533;SDS011;5823;50.588;8.462;2022-12-18T01:43:00;1.47;;;1.10;;
11533;SDS011;5823;50.588;8.462;2022-12-18T01:45:27;2.63;;;1.80;;
11533;SDS011;5823;50.588;8.462;2022-12-18T01:47:54;2.07;;;1.60;;
11533;SDS011;5823;50.588;8.462;2022-12-18T01:50:21;2.07;;;1.37;;
11533;SDS011;5823;50.588;8.462;2022-12-18T01:52:50;1.93;;;1.27;;
11533;SDS011;5823;50.588;8.462;2022-12-18T01:55:18;2.30;;;1.60;;
11533;SDS011;5823;50.588;8.462;2022-12-18T01:57:45;2.00;;;1.47;;
11533;SDS011;5823;50.588;8.462;2022-12-18T02:00:12;1.40;;;1.10;;
11533;SDS011;5823;50.588;8.462;2022-12-18T02:02:39;2.00;;;1.43;;
11533;SDS011;5823;50.588;8.462;2022-12-18T02:05:07;1.63;;;1.10;;
11533;SDS011;5823;50.588;8.462;2022-12-18T02:07:36;2.20;;;1.20;;
11533;SDS011;5823;50.588;8.462;2022-12-18T02:10:06;0.87;;;0.80;;
11533;SDS011;5823;50.588;8.462;2022-12-18T02:12:35;1.90;;;1.07;;
11533;SDS011;5823;50.588;8.462;2022-12-18T02:15:04;0.97;;;0.70;;
11533;SDS011;5823;50.588;8.462;2022-12-18T02:17:35;1.40;;;1.10;;
11533;SDS011;5823;50.588;8.462;2022-12-18T02:20:05;0.77;;;0.77;;
11533;SDS011;5823;50.588;8.462;2022-12-18T02:22:37;0.80;;;0.80;;
11533;SDS011;5823;50.588;8.462;2022-12-18T02:25:11;1.10;;;0.80;;
11533;SDS011;5823;50.588;8.462;2022-12-18T02:27:40;0.83;;;0.83;;
11533;SDS011;5823;50.588;8.462;2022-12-18T02:30:07;1.30;;;1.00;;
11533;SDS011;5823;50.588;8.462;2022-12-18T02:32:35;1.63;;;1.20;;
11533;SDS011;5823;50.588;8.462;2022-12-18T02:35:04;1.53;;;1.13;;
11533;SDS011;5823;50.588;8.462;2022-12-18T02:37:31;2.43;;;2.03;;
11533;SDS011;5823;50.588;8.462;2022-12-18T02:39:59;1.63;;;1.20;;
11533;SDS011;5823;50.588;8.462;2022-12-18T02:42:25;2.27;;;1.63;;
11533;SDS011;5823;50.588;8.462;2022-12-18T02:44:53;2.37;;;1.30;;
11533;SDS011;5823;50.588;8.462;2022-12-18T02:47:20;1.63;;;1.10;;
11533;SDS011;5823;50.588;8.462;2022-12-18T02:49:49;2.03;;;1.10;;
11533;SDS011;5823;50.588;8.462;2022-12-18T02:52:21;2.07;;;1.30;;
11533;SDS011;5823;50.588;8.462;2022-12-18T02:54:51;1.57;;;0.93;;
11533;SDS011;5823;50.588;8.462;2022-12-18T02:57:23;1.70;;;1.10;;
11533;SDS011;5823;50.588;8.462;2022-12-18T02:59:55;1.87;;;1.00;;
11533;SDS011;5823;50.588;8.462;2022-12-18T03:02:23;1.63;;;1.20;;
11533;SDS011;5823;50.588;8.462;2022-12-18T03:04:53;1.30;;;1.00;;
11533;SDS011;5823;50.588;8.462;2022-12-18T03:07:23;2.10;;;1.50;;
11533;SDS011;5823;50.588;8.462;2022-12-18T03:09:51;2.33;;;1.53;;
11533;SDS011;5823;50.588;8.462;2022-12-18T03:12:20;2.63;;;1.20;;
11533;SDS011;5823;50.588;8.462;2022-12-18T03:14:50;0.87;;;0.80;;
11533;SDS011;5823;50.588;8.462;2022-12-18T03:17:20;1.50;;;1.17;;
11533;SDS011;5823;50.588;8.462;2022-12-18T03:19:48;1.63;;;1.20;;
11533;SDS011;5823;50.588;8.462;2022-12-18T03:22:15;1.73;;;1.23;;
11533;SDS011;5823;50.588;8.462;2022-12-18T03:24:42;1.57;;;1.17;;
11533;SDS011;5823;50.588;8.462;2022-12-18T03:27:09;1.30;;;1.20;;
11533;SDS011;5823;50.588;8.462;2022-12-18T03:29:38;3.37;;;1.97;;
11533;SDS011;5823;50.588;8.462;2022-12-18T03:32:05;1.70;;;1.20;;
11533;SDS011;5823;50.588;8.462;2022-12-18T03:34:34;2.47;;;1.43;;
11533;SDS011;5823;50.588;8.462;2022-12-18T03:37:01;1.50;;;1.17;;
11533;SDS011;5823;50.588;8.462;2022-12-18T03:39:28;2.30;;;1.40;;
11533;SDS011;5823;50.588;8.462;2022-12-18T03:41:55;1.77;;;1.17;;
11533;SDS011;5823;50.588;8.462;2022-12-18T03:44:26;1.83;;;1.20;;
11533;SDS011;5823;50.588;8.462;2022-12-18T03:46:55;1.80;;;1.13;;
11533;SDS011;5823;50.588;8.462;2022-12-18T03:49:25;1.30;;;1.10;;
11533;SDS011;5823;50.588;8.462;2022-12-18T03:51:54;1.53;;;1.10;;
11533;SDS011;5823;50.588;8.462;2022-12-18T03:54:22;1.77;;;1.13;;
11533;SDS011;5823;50.588;8.462;2022-12-18T03:56:51;2.43;;;1.70;;
11533;SDS011;5823;50.588;8.462;2022-12-18T03:59:19;1.90;;;1.30;;
11533;SDS011;5823;50.588;8.462;2022-12-18T04:01:47;2.30;;;1.40;;
11533;SDS011;5823;50.588;8.462;2022-12-18T04:04:15;1.83;;;1.27;;
11533;SDS011;5823;50.588;8.462;2022-12-18T04:06:42;1.73;;;1.47;;
11533;SDS011;5823;50.588;8.462;2022-12-18T04:09:10;2.20;;;1.57;;
11533;SDS011;5823;50.588;8.462;2022-12-18T04:11:37;1.47;;;0.93;;
11533;SDS011;5823;50.588;8.462;2022-12-18T04:14:03;2.30;;;1.30;;
11533;SDS011;5823;50.588;8.462;2022-12-18T04:16:29;1.30;;;1.07;;
11533;SDS011;5823;50.588;8.462;2022-12-18T04:18:56;1.97;;;1.07;;
11533;SDS011;5823;50.588;8.462;2022-12-18T04:21:22;2.10;;;1.50;;
11533;SDS011;5823;50.588;8.462;2022-12-18T04:23:48;1.50;;;1.30;;
11533;SDS011;5823;50.588;8.462;2022-12-18T04:26:16;1.40;;;1.20;;
11533;SDS011;5823;50.588;8.462;2022-12-18T04:28:42;2.00;;;1.50;;
11533;SDS011;5823;50.588;8.462;2022-12-18T04:31:09;1.37;;;1.00;;
11533;SDS011;5823;50.588;8.462;2022-12-18T04:33:35;1.10;;;1.00;;
11533;SDS011;5823;50.588;8.462;2022-12-18T04:36:01;1.33;;;1.17;;
11533;SDS011;5823;50.588;8.462;2022-12-18T04:38:28;2.67;;;1.97;;
11533;SDS011;5823;50.588;8.462;2022-12-18T04:40:54;3.07;;;1.77;;
11533;SDS011;5823;50.588;8.462;2022-12-18T04:43:22;2.27;;;1.73;;
11533;SDS011;5823;50.588;8.462;2022-12-18T04:45:48;1.77;;;1.13;;
11533;SDS011;5823;50.588;8.462;2022-12-18T04:48:15;2.20;;;1.40;;
11533;SDS011;5823;50.588;8.462;2022-12-18T04:50:41;1.43;;;1.17;;
11533;SDS011;5823;50.588;8.462;2022-12-18T04:53:08;1.73;;;1.37;;
11533;SDS011;5823;50.588;8.462;2022-12-18T04:55:34;1.10;;;0.90;;
11533;SDS011;5823;50.588;8.462;2022-12-18T04:58:00;1.43;;;1.27;;
11533;SDS011;5823;50.588;8.462;2022-12-18T05:00:28;1.97;;;1.50;;
11533;SDS011;5823;50.588;8.462;2022-12-18T05:02:54;1.27;;;1.00;;
11533;SDS011;5823;50.588;8.462;2022-12-18T05:05:20;1.33;;;0.90;;
11533;SDS011;5823;50.588;8.462;2022-12-18T05:07:46;1.00;;;0.80;;
11533;SDS011;5823;50.588;8.462;2022-12-18T05:10:13;0.73;;;0.70;;
11533;SDS011;5823;50.588;8.462;2022-12-18T05:12:39;1.37;;;0.83;;
11533;SDS011;5823;50.588;8.462;2022-12-18T05:15:22;1.07;;;0.80;;
11533;SDS011;5823;50.588;8.462;2022-12-18T05:17:50;0.80;;;0.70;;
11533;SDS011;5823;50.588;8.462;2022-12-18T05:20:16;1.03;;;0.93;;
11533;SDS011;5823;50.588;8.462;2022-12-18T05:22:43;1.20;;;0.90;;
11533;SDS011;5823;50.588;8.462;2022-12-18T05:25:10;1.33;;;1.07;;
11533;SDS011;5823;50.588;8.462;2022-12-18T05:27:36;0.70;;;0.60;;
11533;SDS011;5823;50.588;8.462;2022-12-18T05:30:02;1.33;;;1.00;;
11533;SDS011;5823;50.588;8.462;2022-12-18T05:32:29;1.57;;;0.90;;
11533;SDS011;5823;50.588;8.462;2022-12-18T05:34:57;1.13;;;0.83;;
11533;SDS011;5823;50.588;8.462;2022-12-18T05:37:23;1.17;;;1.00;;
11533;SDS011;5823;50.588;8.462;2022-12-18T05:39:49;1.43;;;0.97;;
11533;SDS011;5823;50.588;8.462;2022-12-18T05:42:15;1.00;;;0.90;;
11533;SDS011;5823;50.588;8.462;2022-12-18T05:44:42;1.63;;;0.90;;
11533;SDS011;5823;50.588;8.462;2022-12-18T05:47:09;1.10;;;1.00;;
11533;SDS011;5823;50.588;8.462;2022-12-18T05:49:35;1.23;;;1.00;;
11533;SDS011;5823;50.588;8.462;2022-12-18T05:52:03;1.10;;;1.00;;
11533;SDS011;5823;50.588;8.462;2022-12-18T05:54:29;1.33;;;0.80;;
11533;SDS011;5823;50.588;8.462;2022-12-18T05:56:56;1.10;;;0.80;;
11533;SDS011;5823;50.588;8.462;2022-12-18T05:59:22;1.90;;;1.13;;
11533;SDS011;5823;50.588;8.462;2022-12-18T06:01:48;1.80;;;1.20;;
11533;SDS011;5823;50.588;8.462;2022-12-18T06:04:15;2.10;;;1.07;;
11533;SDS011;5823;50.588;8.462;2022-12-18T06:06:41;2.40;;;1.27;;
11533;SDS011;5823;50.588;8.462;2022-12-18T06:09:09;1.93;;;1.27;;
11533;SDS011;5823;50.588;8.462;2022-12-18T06:11:35;1.17;;;1.07;;
11533;SDS011;5823;50.588;8.462;2022-12-18T06:14:02;1.57;;;0.80;;
11533;SDS011;5823;50.588;8.462;2022-12-18T06:16:30;1.90;;;1.40;;
11533;SDS011;5823;50.588;8.462;2022-12-18T06:18:56;1.93;;;1.20;;
11533;SDS011;5823;50.588;8.462;2022-12-18T06:21:23;1.90;;;1.17;;
11533;SDS011;5823;50.588;8.462;2022-12-18T06:23:49;1.37;;;0.83;;
11533;SDS011;5823;50.588;8.462;2022-12-18T06:26:16;4.00;;;1.73;;
11533;SDS011;5823;50.588;8.462;2022-12-18T06:28:43;1.80;;;1.10;;
11533;SDS011;5823;50.588;8.462;2022-12-18T06:31:09;2.03;;;1.23;;
11533;SDS011;5823;50.588;8.462;2022-12-18T06:33:35;1.43;;;1.00;;
11533;SDS011;5823;50.588;8.462;2022-12-18T06:36:02;1.60;;;1.07;;
11533;SDS011;5823;50.588;8.462;2022-12-18T06:38:29;1.43;;;1.30;;
11533;SDS011;5823;50.588;8.462;2022-12-18T06:40:55;0.93;;;0.73;;
11533;SDS011;5823;50.588;8.462;2022-12-18T06:43:23;1.17;;;0.80;;
11533;SDS011;5823;50.588;8.462;2022-12-18T06:45:49;0.77;;;0.70;;
11533;SDS011;5823;50.588;8.462;2022-12-18T06:48:17;0.70;;;0.60;;
11533;SDS011;5823;50.588;8.462;2022-12-18T06:50:44;1.10;;;0.73;;
11533;SDS011;5823;50.588;8.462;2022-12-18T06:53:10;1.70;;;1.30;;
11533;SDS011;5823;50.588;8.462;2022-12-18T06:55:36;2.97;;;1.60;;
11533;SDS011;5823;50.588;8.462;2022-12-18T06:58:05;1.20;;;1.00;;
11533;SDS011;5823;50.588;8.462;2022-12-18T07:00:33;1.27;;;0.90;;
11533;SDS011;5823;50.588;8.462;2022-12-18T07:02:59;1.90;;;1.30;;
11533;SDS011;5823;50.588;8.462;2022-12-18T07:05:25;1.20;;;1.00;;
11533;SDS011;5823;50.588;8.462;2022-12-18T07:07:51;1.70;;;1.43;;
11533;SDS011;5823;50.588;8.462;2022-12-18T07:10:18;1.43;;;1.10;;
11533;SDS011;5823;50.588;8.462;2022-12-18T07:12:44;1.77;;;1.37;;
11533;SDS011;5823;50.588;8.462;2022-12-18T07:15:10;1.77;;;1.10;;
11533;SDS011;5823;50.588;8.462;2022-12-18T07:17:38;1.87;;;1.40;;
11533;SDS011;5823;50.588;8.462;2022-12-18T07:20:04;1.90;;;1.13;;
11533;SDS011;5823;50.588;8.462;2022-12-18T07:22:31;1.27;;;1.17;;
11533;SDS011;5823;50.588;8.462;2022-12-18T07:24:57;1.73;;;1.50;;
11533;SDS011;5823;50.588;8.462;2022-12-18T07:27:23;1.27;;;1.00;;
11533;SDS011;5823;50.588;8.462;2022-12-18T07:29:50;1.30;;;1.00;;
11533;SDS011;5823;50.588;8.462;2022-12-18T07:32:16;1.73;;;1.30;;
11533;SDS011;5823;50.588;8.462;2022-12-18T07:34:43;1.83;;;1.30;;
11533;SDS011;5823;50.588;8.462;2022-12-18T07:37:10;1.43;;;1.07;;
11533;SDS011;5823;50.588;8.462;2022-12-18T07:39:36;1.60;;;1.23;;
11533;SDS011;5823;50.588;8.462;2022-12-18T07:42:02;1.63;;;1.33;;
11533;SDS011;5823;50.588;8.462;2022-12-18T07:44:46;1.80;;;1.30;;
11533;SDS011;5823;50.588;8.462;2022-12-18T07:47:13;1.00;;;0.90;;
11533;SDS011;5823;50.588;8.462;2022-12-18T07:49:39;1.20;;;0.90;;
11533;SDS011;5823;50.588;8.462;2022-12-18T07:52:06;1.70;;;1.20;;
11533;SDS011;5823;50.588;8.462;2022-12-18T07:54:34;1.97;;;1.50;;
11533;SDS011;5823;50.588;8.462;2022-12-18T07:57:00;1.27;;;0.70;;
11533;SDS011;5823;50.588;8.462;2022-12-18T07:59:26;1.20;;;1.10;;
11533;SDS011;5823;50.588;8.462;2022-12-18T08:01:53;2.10;;;1.20;;
11533;SDS011;5823;50.588;8.462;2022-12-18T08:04:19;1.93;;;1.00;;
11533;SDS011;5823;50.588;8.462;2022-12-18T08:06:45;1.23;;;1.00;;
11533;SDS011;5823;50.588;8.462;2022-12-18T08:09:13;1.57;;;1.20;;
11533;SDS011;5823;50.588;8.462;2022-12-18T08:11:39;1.47;;;1.20;;
11533;SDS011;5823;50.588;8.462;2022-12-18T08:14:06;2.27;;;1.07;;
11533;SDS011;5823;50.588;8.462;2022-12-18T08:16:32;2.10;;;1.40;;
11533;SDS011;5823;50.588;8.462;2022-12-18T08:18:58;2.13;;;1.37;;
11533;SDS011;5823;50.588;8.462;2022-12-18T08:21:26;0.80;;;0.80;;
11533;SDS011;5823;50.588;8.462;2022-12-18T08:23:53;1.00;;;0.90;;
11533;SDS011;5823;50.588;8.462;2022-12-18T08:26:21;0.60;;;0.60;;
11533;SDS011;5823;50.588;8.462;2022-12-18T08:28:48;1.07;;;0.70;;
11533;SDS011;5823;50.588;8.462;2022-12-18T08:31:14;1.00;;;0.60;;
11533;SDS011;5823;50.588;8.462;2022-12-18T08:33:40;1.60;;;1.10;;
11533;SDS011;5823;50.588;8.462;2022-12-18T08:36:08;0.83;;;0.73;;
11533;SDS011;5823;50.588;8.462;2022-12-18T08:38:34;1.40;;;1.20;;
11533;SDS011;5823;50.588;8.462;2022-12-18T08:41:01;1.63;;;0.87;;
11533;SDS011;5823;50.588;8.462;2022-12-18T08:43:28;1.20;;;0.90;;
11533;SDS011;5823;50.588;8.462;2022-12-18T08:46:12;1.00;;;0.80;;
11533;SDS011;5823;50.588;8.462;2022-12-18T08:48:39;1.23;;;0.87;;
11533;SDS011;5823;50.588;8.462;2022-12-18T08:51:05;1.97;;;1.33;;
11533;SDS011;5823;50.588;8.462;2022-12-18T08:53:31;1.00;;;0.90;;
11533;SDS011;5823;50.588;8.462;2022-12-18T08:55:57;1.57;;;1.30;;
11533;SDS011;5823;50.588;8.462;2022-12-18T08:58:24;1.83;;;1.30;;
11533;SDS011;5823;50.588;8.462;2022-12-18T09:00:51;1.23;;;0.83;;
11533;SDS011;5823;50.588;8.462;2022-12-18T09:03:18;1.60;;;0.90;;
11533;SDS011;5823;50.588;8.462;2022-12-18T09:05:45;1.17;;;0.80;;
11533;SDS011;5823;50.588;8.462;2022-12-18T09:08:12;1.50;;;0.80;;
11533;SDS011;5823;50.588;8.462;2022-12-18T09:10:41;0.67;;;0.60;;
11533;SDS011;5823;50.588;8.462;2022-12-18T09:13:07;1.10;;;0.90;;
11533;SDS011;5823;50.588;8.462;2022-12-18T09:15:33;0.50;;;0.50;;
11533;SDS011;5823;50.588;8.462;2022-12-18T09:18:01;1.03;;;0.87;;
11533;SDS011;5823;50.588;8.462;2022-12-18T09:20:27;1.00;;;0.73;;
11533;SDS011;5823;50.588;8.462;2022-12-18T09:22:54;1.33;;;0.97;;
11533;SDS011;5823;50.588;8.462;2022-12-18T09:25:21;0.90;;;0.63;;
11533;SDS011;5823;50.588;8.462;2022-12-18T09:27:47;1.90;;;1.03;;
11533;SDS011;5823;50.588;8.462;2022-12-18T09:30:13;1.80;;;0.73;;
11533;SDS011;5823;50.588;8.462;2022-12-18T09:32:39;1.30;;;0.90;;
11533;SDS011;5823;50.588;8.462;2022-12-18T09:35:08;1.37;;;1.07;;
11533;SDS011;5823;50.588;8.462;2022-12-18T09:37:34;0.63;;;0.60;;
11533;SDS011;5823;50.588;8.462;2022-12-18T09:40:00;0.90;;;0.70;;
11533;SDS011;5823;50.588;8.462;2022-12-18T09:42:27;1.10;;;0.70;;
11533;SDS011;5823;50.588;8.462;2022-12-18T09:44:53;1.30;;;0.87;;
11533;SDS011;5823;50.588;8.462;2022-12-18T09:47:22;0.77;;;0.60;;
11533;SDS011;5823;50.588;8.462;2022-12-18T09:49:50;1.13;;;0.70;;
11533;SDS011;5823;50.588;8.462;2022-12-18T09:52:21;1.27;;;0.73;;
11533;SDS011;5823;50.588;8.462;2022-12-18T09:54:50;0.67;;;0.63;;
11533;SDS011;5823;50.588;8.462;2022-12-18T09:57:18;0.70;;;0.60;;
11533;SDS011;5823;50.588;8.462;2022-12-18T09:59:47;0.60;;;0.60;;
11533;SDS011;5823;50.588;8.462;2022-12-18T10:02:16;0.83;;;0.73;;
11533;SDS011;5823;50.588;8.462;2022-12-18T10:04:42;0.90;;;0.70;;
11533;SDS011;5823;50.588;8.462;2022-12-18T10:07:09;1.53;;;0.83;;
11533;SDS011;5823;50.588;8.462;2022-12-18T10:09:41;1.60;;;0.70;;
11533;SDS011;5823;50.588;8.462;2022-12-18T10:12:12;1.23;;;0.70;;
11533;SDS011;5823;50.588;8.462;2022-12-18T10:14:41;0.60;;;0.60;;
11533;SDS011;5823;50.588;8.462;2022-12-18T10:17:13;0.80;;;0.60;;
11533;SDS011;5823;50.588;8.462;2022-12-18T10:19:42;0.50;;;0.50;;
11533;SDS011;5823;50.588;8.462;2022-12-18T10:22:16;0.60;;;0.60;;
11533;SDS011;5823;50.588;8.462;2022-12-18T10:24:48;0.83;;;0.57;;
11533;SDS011;5823;50.588;8.462;2022-12-18T10:27:15;0.87;;;0.50;;
11533;SDS011;5823;50.588;8.462;2022-12-18T10:29:42;0.43;;;0.43;;
11533;SDS011;5823;50.588;8.462;2022-12-18T10:32:13;0.47;;;0.47;;
11533;SDS011;5823;50.588;8.462;2022-12-18T10:34:40;0.30;;;0.30;;
11533;SDS011;5823;50.588;8.462;2022-12-18T10:37:06;0.57;;;0.57;;
11533;SDS011;5823;50.588;8.462;2022-12-18T10:39:37;0.93;;;0.80;;
11533;SDS011;5823;50.588;8.462;2022-12-18T10:42:10;0.57;;;0.57;;
11533;SDS011;5823;50.588;8.462;2022-12-18T10:44:37;0.90;;;0.70;;
11533;SDS011;5823;50.588;8.462;2022-12-18T10:47:04;0.93;;;0.90;;
11533;SDS011;5823;50.588;8.462;2022-12-18T10:49:32;0.50;;;0.50;;
11533;SDS011;5823;50.588;8.462;2022-12-18T10:52:07;0.50;;;0.50;;
11533;SDS011;5823;50.588;8.462;2022-12-18T10:54:34;0.73;;;0.73;;
11533;SDS011;5823;50.588;8.462;2022-12-18T10:57:15;0.90;;;0.80;;
11533;SDS011;5823;50.588;8.462;2022-12-18T10:59:49;1.33;;;1.07;;
11533;SDS011;5823;50.588;8.462;2022-12-18T11:02:24;1.40;;;1.03;;
11533;SDS011;5823;50.588;8.462;2022-12-18T11:04:51;1.03;;;1.00;;
11533;SDS011;5823;50.588;8.462;2022-12-18T11:07:18;1.97;;;1.77;;
11533;SDS011;5823;50.588;8.462;2022-12-18T11:09:45;2.20;;;1.27;;
11533;SDS011;5823;50.588;8.462;2022-12-18T11:12:27;1.23;;;1.03;;
11533;SDS011;5823;50.588;8.462;2022-12-18T11:14:57;2.27;;;1.30;;
11533;SDS011;5823;50.588;8.462;2022-12-18T11:17:25;1.47;;;1.37;;
11533;SDS011;5823;50.588;8.462;2022-12-18T11:19:54;3.47;;;2.53;;
11533;SDS011;5823;50.588;8.462;2022-12-18T11:22:23;1.90;;;1.63;;
11533;SDS011;5823;50.588;8.462;2022-12-18T11:24:52;1.90;;;1.50;;
11533;SDS011;5823;50.588;8.462;2022-12-18T11:27:19;2.50;;;1.70;;
11533;SDS011;5823;50.588;8.462;2022-12-18T11:29:47;3.67;;;2.67;;
11533;SDS011;5823;50.588;8.462;2022-12-18T11:32:24;2.87;;;2.43;;
11533;SDS011;5823;50.588;8.462;2022-12-18T11:34:54;6.93;;;4.20;;
11533;SDS011;5823;50.588;8.462;2022-12-18T11:37:23;6.77;;;3.83;;
11533;SDS011;5823;50.588;8.462;2022-12-18T11:39:51;6.03;;;3.63;;
11533;SDS011;5823;50.588;8.462;2022-12-18T11:42:20;4.67;;;3.17;;
11533;SDS011;5823;50.588;8.462;2022-12-18T11:44:50;5.80;;;3.60;;
11533;SDS011;5823;50.588;8.462;2022-12-18T11:47:22;7.33;;;4.63;;
11533;SDS011;5823;50.588;8.462;2022-12-18T11:49:51;6.80;;;3.83;;
11533;SDS011;5823;50.588;8.462;2022-12-18T11:52:18;5.60;;;3.33;;
11533;SDS011;5823;50.588;8.462;2022-12-18T11:54:45;9.00;;;5.67;;
11533;SDS011;5823;50.588;8.462;2022-12-18T11:57:14;5.50;;;4.30;;
11533;SDS011;5823;50.588;8.462;2022-12-18T11:59:44;7.27;;;4.53;;
11533;SDS011;5823;50.588;8.462;2022-12-18T12:02:17;6.47;;;4.23;;
11533;SDS011;5823;50.588;8.462;2022-12-18T12:04:47;5.70;;;3.60;;
11533;SDS011;5823;50.588;8.462;2022-12-18T12:07:18;7.23;;;4.57;;
11533;SDS011;5823;50.588;8.462;2022-12-18T12:09:48;8.70;;;5.00;;
11533;SDS011;5823;50.588;8.462;2022-12-18T12:12:24;5.43;;;3.90;;
11533;SDS011;5823;50.588;8.462;2022-12-18T12:14:54;6.73;;;4.23;;
11533;SDS011;5823;50.588;8.462;2022-12-18T12:17:27;5.00;;;3.40;;
11533;SDS011;5823;50.588;8.462;2022-12-18T12:19:57;6.47;;;4.37;;
11533;SDS011;5823;50.588;8.462;2022-12-18T12:22:28;7.80;;;4.80;;
11533;SDS011;5823;50.588;8.462;2022-12-18T12:25:02;6.53;;;4.93;;
11533;SDS011;5823;50.588;8.462;2022-12-18T12:27:33;10.50;;;6.93;;
11533;SDS011;5823;50.588;8.462;2022-12-18T12:30:03;8.07;;;5.57;;
11533;SDS011;5823;50.588;8.462;2022-12-18T12:32:36;9.53;;;6.23;;
11533;SDS011;5823;50.588;8.462;2022-12-18T12:35:08;11.67;;;6.90;;
11533;SDS011;5823;50.588;8.462;2022-12-18T12:37:40;9.37;;;5.80;;
11533;SDS011;5823;50.588;8.462;2022-12-18T12:40:11;10.20;;;6.67;;
11533;SDS011;5823;50.588;8.462;2022-12-18T12:42:39;9.60;;;5.90;;
11533;SDS011;5823;50.588;8.462;2022-12-18T12:45:22;8.50;;;5.40;;
11533;SDS011;5823;50.588;8.462;2022-12-18T12:47:50;7.80;;;5.07;;
11533;SDS011;5823;50.588;8.462;2022-12-18T12:50:18;7.37;;;5.13;;
11533;SDS011;5823;50.588;8.462;2022-12-18T12:52:45;6.73;;;4.60;;
11533;SDS011;5823;50.588;8.462;2022-12-18T12:55:14;7.33;;;5.00;;
11533;SDS011;5823;50.588;8.462;2022-12-18T12:57:43;7.65;;;5.47;;
11533;SDS011;5823;50.588;8.462;2022-12-18T13:00:13;9.68;;;6.28;;
11533;SDS011;5823;50.588;8.462;2022-12-18T13:02:42;10.50;;;5.97;;
11533;SDS011;5823;50.588;8.462;2022-12-18T13:05:14;14.17;;;8.10;;
11533;SDS011;5823;50.588;8.462;2022-12-18T13:07:45;13.82;;;8.27;;
11533;SDS011;5823;50.588;8.462;2022-12-18T13:10:22;10.13;;;6.37;;
11533;SDS011;5823;50.588;8.462;2022-12-18T13:12:52;10.87;;;6.97;;
11533;SDS011;5823;50.588;8.462;2022-12-18T13:15:21;9.77;;;6.47;;
11533;SDS011;5823;50.588;8.462;2022-12-18T13:17:48;8.53;;;5.77;;
11533;SDS011;5823;50.588;8.462;2022-12-18T13:20:16;11.03;;;6.03;;
11533;SDS011;5823;50.588;8.462;2022-12-18T13:22:43;7.80;;;4.82;;
11533;SDS011;5823;50.588;8.462;2022-12-18T13:27:57;11.70;;;7.57;;
11533;SDS011;5823;50.588;8.462;2022-12-18T13:30:46;10.53;;;6.73;;
11533;SDS011;5823;50.588;8.462;2022-12-18T13:36:02;14.00;;;8.00;;
11533;SDS011;5823;50.588;8.462;2022-12-18T13:38:32;11.87;;;6.57;;
11533;SDS011;5823;50.588;8.462;2022-12-18T13:40:59;9.23;;;6.13;;
11533;SDS011;5823;50.588;8.462;2022-12-18T13:43:36;10.13;;;6.95;;
11533;SDS011;5823;50.588;8.462;2022-12-18T13:46:05;9.50;;;6.27;;
11533;SDS011;5823;50.588;8.462;2022-12-18T13:48:33;6.87;;;5.37;;
11533;SDS011;5823;50.588;8.462;2022-12-18T13:51:03;7.20;;;4.33;;
11533;SDS011;5823;50.588;8.462;2022-12-18T13:53:30;8.45;;;4.88;;
11533;SDS011;5823;50.588;8.462;2022-12-18T13:55:59;9.07;;;4.87;;
11533;SDS011;5823;50.588;8.462;2022-12-18T13:58:25;8.13;;;4.67;;
11533;SDS011;5823;50.588;8.462;2022-12-18T14:00:51;8.73;;;5.00;;
11533;SDS011;5823;50.588;8.462;2022-12-18T14:03:18;7.90;;;4.63;;
11533;SDS011;5823;50.588;8.462;2022-12-18T14:05:45;9.10;;;5.43;;
11533;SDS011;5823;50.588;8.462;2022-12-18T14:08:14;7.07;;;4.50;;
11533;SDS011;5823;50.588;8.462;2022-12-18T14:10:41;8.07;;;4.90;;
11533;SDS011;5823;50.588;8.462;2022-12-18T14:13:08;9.57;;;5.60;;
11533;SDS011;5823;50.588;8.462;2022-12-18T14:15:36;10.53;;;6.37;;
11533;SDS011;5823;50.588;8.462;2022-12-18T14:18:09;9.23;;;5.27;;
11533;SDS011;5823;50.588;8.462;2022-12-18T14:20:40;11.97;;;6.17;;
11533;SDS011;5823;50.588;8.462;2022-12-18T14:25:51;8.03;;;5.57;;
11533;SDS011;5823;50.588;8.462;2022-12-18T14:28:17;11.60;;;6.97;;
11533;SDS011;5823;50.588;8.462;2022-12-18T14:30:43;9.07;;;5.10;;
11533;SDS011;5823;50.588;8.462;2022-12-18T14:33:10;11.17;;;6.37;;
11533;SDS011;5823;50.588;8.462;2022-12-18T14:35:38;9.97;;;6.33;;
11533;SDS011;5823;50.588;8.462;2022-12-18T14:38:09;7.93;;;4.90;;
11533;SDS011;5823;50.588;8.462;2022-12-18T14:40:35;7.55;;;4.55;;
11533;SDS011;5823;50.588;8.462;2022-12-18T14:43:03;10.67;;;6.13;;
11533;SDS011;5823;50.588;8.462;2022-12-18T14:45:35;7.50;;;4.63;;
11533;SDS011;5823;50.588;8.462;2022-12-18T14:48:05;9.03;;;5.77;;
11533;SDS011;5823;50.588;8.462;2022-12-18T14:50:32;11.17;;;6.90;;
11533;SDS011;5823;50.588;8.462;2022-12-18T14:52:58;9.10;;;5.33;;
11533;SDS011;5823;50.588;8.462;2022-12-18T14:55:24;7.68;;;4.88;;
11533;SDS011;5823;50.588;8.462;2022-12-18T14:57:51;9.63;;;5.50;;
11533;SDS011;5823;50.588;8.462;2022-12-18T15:00:21;8.48;;;5.22;;
11533;SDS011;5823;50.588;8.462;2022-12-18T15:02:49;8.07;;;4.87;;
11533;SDS011;5823;50.588;8.462;2022-12-18T15:05:17;8.43;;;5.00;;
11533;SDS011;5823;50.588;8.462;2022-12-18T15:07:44;8.63;;;5.43;;
11533;SDS011;5823;50.588;8.462;2022-12-18T15:10:12;8.63;;;5.40;;
11533;SDS011;5823;50.588;8.462;2022-12-18T15:12:39;10.43;;;5.78;;
11533;SDS011;5823;50.588;8.462;2022-12-18T15:17:48;14.37;;;7.97;;